Time;durP1;ratioP1;P1;durP2;ratioP2;P2;SDS_P1;SDS_P2;PMS_P1;PMS_P2;Temp;Humidity;BMP_temperature;BMP_pressure;BME280_temperature;BME280_humidity;BME280_pressure;Samples;Min_cycle;Max_cycle;Signal;HPM_P1;HPM_P2
2022/01/03 00:02:07;;;;;;;4.25;3.10;;;10.70;82.90;;;;;;5099118;28;20028;-75
2022/01/03 00:04:40;;;;;;;5.55;3.03;;;10.70;82.90;;;;;;5099015;28;20369;-77
2022/01/03 00:07:07;;;;;;;7.32;2.75;;;10.80;83.20;;;;;;5064213;28;20044;-77
2022/01/03 00:09:38;;;;;;;4.60;3.00;;;10.80;82.10;;;;;;5096283;28;20028;-76
2022/01/03 00:12:06;;;;;;;4.30;2.72;;;10.80;81.40;;;;;;5099265;28;20020;-77
2022/01/03 00:14:34;;;;;;;4.72;2.97;;;10.90;81.30;;;;;;5080653;28;20046;-76
2022/01/03 00:17:02;;;;;;;6.63;3.35;;;10.90;80.60;;;;;;5098930;28;20103;-76
2022/01/03 00:19:28;;;;;;;4.90;2.80;;;10.90;80.10;;;;;;5081058;28;20098;-77
2022/01/03 00:21:57;;;;;;;6.07;2.63;;;11.00;79.80;;;;;;5098932;28;20326;-77
2022/01/03 00:24:36;;;;;;;6.28;3.28;;;11.10;79.40;;;;;;5081404;28;20374;-76
2022/01/03 00:27:13;;;;;;;5.95;2.92;;;11.10;79.10;;;;;;5081767;28;20040;-77
2022/01/03 00:29:46;;;;;;;5.13;2.85;;;11.10;78.70;;;;;;5078835;28;20036;-77
2022/01/03 00:32:15;;;;;;;3.92;2.30;;;11.20;78.80;;;;;;5061265;28;20032;-76
2022/01/03 00:34:41;;;;;;;5.47;2.40;;;11.20;78.70;;;;;;5061108;28;20438;-77
2022/01/03 00:37:43;;;;;;;3.00;2.53;;;11.20;78.60;;;;;;5077695;28;20534;-77
2022/01/03 00:40:10;;;;;;;8.10;4.20;;;11.20;78.50;;;;;;5090209;28;20439;-77
2022/01/03 00:42:38;;;;;;;9.38;5.13;;;11.20;79.50;;;;;;5095812;28;20032;-76
2022/01/03 00:45:06;;;;;;;9.05;4.90;;;11.20;80.20;;;;;;5060690;28;20028;-76
2022/01/03 00:47:34;;;;;;;8.10;3.65;;;11.10;80.60;;;;;;5095133;28;20020;-76
2022/01/03 00:50:22;;;;;;;6.50;3.80;;;11.00;79.90;;;;;;5077421;28;20034;-76
2022/01/03 00:52:50;;;;;;;8.43;4.10;;;11.00;80.60;;;;;;5054890;28;20112;-76
2022/01/03 00:55:16;;;;;;;7.32;4.05;;;11.00;80.90;;;;;;5044050;28;20024;-77
2022/01/03 00:58:06;;;;;;;8.23;4.95;;;11.00;80.70;;;;;;5095539;28;20095;-76
2022/01/03 01:00:36;;;;;;;7.68;4.78;;;10.90;81.10;;;;;;5077255;28;20032;-76
2022/01/03 01:03:12;;;;;;;12.23;4.90;;;10.90;81.40;;;;;;5077824;28;20045;-75
2022/01/03 01:05:47;;;;;;;9.43;4.57;;;10.80;81.40;;;;;;5095479;28;20056;-77
2022/01/03 01:08:20;;;;;;;8.40;4.85;;;10.70;81.80;;;;;;5095432;28;20120;-76
2022/01/03 01:10:46;;;;;;;9.35;5.10;;;10.70;82.00;;;;;;5076935;28;20054;-77
2022/01/03 01:13:21;;;;;;;9.65;4.65;;;10.50;82.20;;;;;;5060150;28;20059;-76
2022/01/03 01:15:48;;;;;;;9.77;5.22;;;10.50;82.40;;;;;;5068569;28;20036;-76
2022/01/03 01:18:18;;;;;;;8.38;4.72;;;10.40;82.80;;;;;;5095279;28;20066;-77
2022/01/03 01:20:45;;;;;;;7.68;4.90;;;10.40;82.50;;;;;;5076773;28;20016;-77
2022/01/03 01:23:14;;;;;;;9.57;4.65;;;10.40;82.90;;;;;;5060062;28;20028;-77
2022/01/03 01:28:10;;;;;;;12.07;5.13;;;10.30;82.70;;;;;;5095183;28;20028;-76
2022/01/03 01:30:38;;;;;;;10.45;4.57;;;10.30;82.80;;;;;;5076718;28;20129;-78
2022/01/03 01:33:16;;;;;;;10.18;5.25;;;10.30;82.90;;;;;;5076798;28;20032;-76
2022/01/03 01:35:53;;;;;;;9.48;4.47;;;10.30;82.70;;;;;;5094705;28;20016;-76
2022/01/03 01:38:38;;;;;;;10.82;4.68;;;10.30;82.90;;;;;;5075581;28;20549;-77
2022/01/03 01:41:19;;;;;;;8.77;4.20;;;10.30;82.90;;;;;;5075890;28;20035;-77
2022/01/03 01:43:52;;;;;;;7.32;4.47;;;10.30;83.10;;;;;;5076297;28;20112;-76
2022/01/03 01:46:43;;;;;;;7.22;4.25;;;10.30;83.30;;;;;;5043179;28;20031;-76
2022/01/03 01:49:27;;;;;;;6.93;3.70;;;10.20;84.40;;;;;;5079493;28;20509;-76
2022/01/03 01:52:15;;;;;;;6.03;3.97;;;10.20;84.90;;;;;;5094116;28;20143;-77
2022/01/03 01:54:58;;;;;;;5.30;4.15;;;10.10;85.30;;;;;;5093355;28;20173;-77
2022/01/03 01:57:57;;;;;;;6.85;4.00;;;10.00;85.00;;;;;;5076491;28;20038;-76
2022/01/03 02:00:23;;;;;;;6.25;4.43;;;9.90;85.20;;;;;;5059305;28;20025;-76
2022/01/03 02:03:10;;;;;;;5.88;3.95;;;9.90;85.60;;;;;;5075849;28;20040;-76
2022/01/03 02:06:07;;;;;;;6.07;3.58;;;9.80;85.90;;;;;;5094354;28;20507;-76
2022/01/03 02:08:43;;;;;;;8.52;4.82;;;9.80;86.00;;;;;;5079113;28;20034;-78
2022/01/03 02:11:35;;;;;;;9.50;5.05;;;9.70;87.10;;;;;;5060025;28;20036;-78
2022/01/03 02:14:01;;;;;;;;;;;9.70;86.50;;;;;;5076642;28;20166;-76
2022/01/03 02:16:31;;;;;;;8.55;4.10;;;9.60;86.60;;;;;;5093907;28;20388;-77
2022/01/03 02:18:56;;;;;;;6.65;4.40;;;9.60;87.10;;;;;;5093726;28;20050;-76
2022/01/03 02:21:25;;;;;;;6.72;3.95;;;9.60;87.30;;;;;;5093850;28;20024;-77
2022/01/03 02:23:50;;;;;;;7.25;4.07;;;9.50;87.40;;;;;;5093711;28;20030;-77
2022/01/03 02:26:16;;;;;;;7.68;4.45;;;9.50;87.60;;;;;;5093593;28;20024;-76
2022/01/03 02:28:43;;;;;;;5.28;3.80;;;9.50;87.90;;;;;;5075394;28;20468;-76
2022/01/03 02:31:08;;;;;;;6.85;3.80;;;9.50;88.10;;;;;;5075413;28;20476;-76
2022/01/03 02:33:35;;;;;;;6.63;3.92;;;9.50;88.40;;;;;;5093787;28;20032;-76
2022/01/03 02:36:04;;;;;;;7.70;4.00;;;9.50;88.50;;;;;;5058956;28;20043;-76
2022/01/03 02:38:34;;;;;;;7.32;4.07;;;9.50;88.50;;;;;;5093255;28;20418;-76
2022/01/03 02:41:01;;;;;;;5.28;4.47;;;9.50;88.60;;;;;;5093472;28;20012;-76
2022/01/03 02:43:31;;;;;;;7.57;3.92;;;9.50;88.90;;;;;;5093500;28;20031;-76
2022/01/03 02:45:57;;;;;;;7.88;5.13;;;9.50;89.20;;;;;;5075129;28;20131;-76
2022/01/03 02:48:22;;;;;;;9.63;5.55;;;9.40;89.30;;;;;;5093528;28;20119;-77
2022/01/03 02:50:49;;;;;;;7.50;5.03;;;9.40;89.50;;;;;;5071399;28;20064;-76
2022/01/03 02:53:16;;;;;;;11.95;5.90;;;9.40;89.70;;;;;;5072202;28;20537;-77
2022/01/03 02:55:42;;;;;;;8.52;4.57;;;9.30;89.80;;;;;;5071685;28;20127;-76
2022/01/03 02:58:09;;;;;;;7.93;3.85;;;9.30;90.10;;;;;;5070491;28;20484;-77
2022/01/03 03:00:49;;;;;;;9.02;4.15;;;9.30;90.20;;;;;;5073097;28;20044;-77
2022/01/03 03:03:17;;;;;;;6.57;3.85;;;9.30;90.30;;;;;;5071671;28;20113;-77
2022/01/03 03:05:45;;;;;;;6.75;4.10;;;9.40;90.40;;;;;;5055141;28;20052;-77
2022/01/03 03:08:13;;;;;;;4.57;3.20;;;9.40;90.40;;;;;;5071883;28;20033;-76
2022/01/03 03:10:41;;;;;;;6.65;3.92;;;9.50;90.40;;;;;;5054018;28;20040;-76
2022/01/03 03:13:07;;;;;;;8.07;4.20;;;9.50;90.40;;;;;;5072820;28;20413;-75
2022/01/03 03:15:35;;;;;;;6.53;3.72;;;9.60;91.10;;;;;;5072843;28;20043;-77
2022/01/03 03:18:07;;;;;;;9.93;4.07;;;9.60;91.70;;;;;;5054894;28;20098;-77
2022/01/03 03:20:34;;;;;;;7.07;4.82;;;9.60;92.20;;;;;;5073073;28;20087;-76
2022/01/03 03:23:00;;;;;;;6.43;4.05;;;9.60;92.90;;;;;;5071409;28;20059;-78
2022/01/03 03:25:33;;;;;;;7.53;4.40;;;9.60;92.70;;;;;;5071525;28;20032;-76
2022/01/03 03:28:07;;;;;;;10.45;4.43;;;9.70;93.10;;;;;;5071298;28;20032;-77
2022/01/03 03:30:58;;;;;;;7.95;4.38;;;9.70;93.30;;;;;;5071349;28;20029;-76
2022/01/03 03:33:29;;;;;;;7.20;4.10;;;9.60;93.60;;;;;;5072634;28;20143;-76
2022/01/03 03:35:56;;;;;;;4.93;4.10;;;9.60;93.30;;;;;;5071408;28;20037;-77
2022/01/03 03:38:26;;;;;;;8.02;4.38;;;9.60;93.60;;;;;;5071442;28;20093;-77
2022/01/03 03:40:57;;;;;;;9.88;4.13;;;9.70;93.70;;;;;;5071244;28;20040;-78
2022/01/03 03:43:23;;;;;;;;;;;9.70;93.90;;;;;;5071757;28;20036;-77
2022/01/03 03:45:49;;;;;;;;;;;9.60;93.90;;;;;;5073258;28;19905;-77
2022/01/03 03:48:31;;;;;;;;;;;9.70;94.20;;;;;;5071709;28;20314;-77
2022/01/03 03:50:59;;;;;;;;;;;9.70;94.40;;;;;;5078388;28;19920;-76
2022/01/03 03:53:35;;;;;;;;;;;9.70;94.50;;;;;;5058131;28;20026;-76
2022/01/03 03:56:02;;;;;;;;;;;9.70;94.50;;;;;;5093085;28;20047;-77
2022/01/03 03:58:27;;;;;;;;;;;9.80;94.40;;;;;;5093205;28;19943;-77
2022/01/03 04:00:54;;;;;;;;;;;9.80;94.20;;;;;;5093159;28;19960;-76
2022/01/03 04:03:19;;;;;;;;;;;9.80;94.10;;;;;;5093037;28;19966;-76
2022/01/03 04:05:45;;;;;;;;;;;9.80;94.00;;;;;;5077988;28;20349;-77
2022/01/03 04:08:11;;;;;;;;;;;9.90;93.90;;;;;;5096740;28;19904;-76
2022/01/03 04:10:38;;;;;;;;;;;9.90;93.50;;;;;;5097085;28;19951;-76
2022/01/03 04:13:04;;;;;;;;;;;9.90;93.30;;;;;;5078937;28;19939;-77
2022/01/03 04:15:30;;;;;;;;;;;9.90;93.10;;;;;;5096799;28;19908;-77
2022/01/03 04:17:56;;;;;;;;;;;9.90;93.00;;;;;;5096814;28;19949;-77
2022/01/03 04:20:21;;;;;;;;;;;10.00;92.80;;;;;;5096787;28;19904;-77
2022/01/03 04:22:48;;;;;;;;;;;10.00;92.60;;;;;;5078457;28;19908;-77
2022/01/03 04:25:15;;;;;;;;;;;10.00;92.50;;;;;;5078382;28;19915;-77
2022/01/03 04:27:40;;;;;;;;;;;10.00;92.30;;;;;;5078243;28;19904;-78
2022/01/03 04:30:07;;;;;;;;;;;10.00;92.10;;;;;;5096513;28;19911;-77
2022/01/03 04:32:35;;;;;;;;;;;10.00;91.90;;;;;;5096389;28;19908;-77
2022/01/03 04:35:02;;;;;;;;;;;10.10;91.80;;;;;;5096466;28;19915;-77
2022/01/03 04:37:28;;;;;;;;;;;10.10;91.80;;;;;;5096418;28;19911;-77
2022/01/03 04:39:53;;;;;;;;;;;10.10;91.80;;;;;;5096676;28;19965;-76
2022/01/03 04:42:20;;;;;;;;;;;10.10;91.70;;;;;;5096447;28;19904;-76
2022/01/03 04:44:46;;;;;;;;;;;10.10;91.60;;;;;;5096452;28;19910;-76
2022/01/03 04:47:12;;;;;;;;;;;10.10;91.40;;;;;;5078072;28;19904;-77
2022/01/03 04:49:37;;;;;;;;;;;10.20;91.00;;;;;;5096060;28;19908;-77
2022/01/03 04:52:04;;;;;;;;;;;10.30;90.70;;;;;;5095640;28;19920;-76
2022/01/03 04:54:29;;;;;;;;;;;10.30;90.20;;;;;;5077878;28;19978;-76
2022/01/03 04:56:59;;;;;;;;;;;10.40;90.20;;;;;;5096289;28;19966;-76
2022/01/03 04:59:26;;;;;;;;;;;10.40;89.60;;;;;;5095953;28;19946;-77
2022/01/03 05:01:52;;;;;;;;;;;10.40;89.40;;;;;;5095879;28;19912;-76
2022/01/03 05:04:19;;;;;;;;;;;10.50;88.80;;;;;;5095796;28;19964;-76
2022/01/03 05:06:44;;;;;;;;;;;10.50;88.70;;;;;;5077547;28;20384;-76
2022/01/03 05:09:11;;;;;;;;;;;10.50;88.00;;;;;;5095933;28;19904;-77
2022/01/03 05:11:38;;;;;;;;;;;10.50;87.60;;;;;;5077444;28;19911;-77
2022/01/03 05:14:04;;;;;;;;;;;10.60;87.50;;;;;;5077354;28;19904;-76
2022/01/03 05:16:29;;;;;;;;;;;10.60;86.80;;;;;;5076666;28;19957;-77
2022/01/03 05:19:00;;;;;;;;;;;10.60;86.80;;;;;;5095490;28;20261;-76
2022/01/03 05:21:26;;;;;;;;;;;10.60;86.40;;;;;;5077302;28;19995;-77
2022/01/03 05:23:52;;;;;;;;;;;10.60;86.70;;;;;;5095657;28;19940;-76
2022/01/03 05:26:18;;;;;;;;;;;10.60;86.40;;;;;;5095551;28;19907;-76
2022/01/03 05:28:47;;;;;;;;;;;10.70;86.80;;;;;;5077182;28;20307;-76
2022/01/03 05:31:20;;;;;;;;;;;10.70;86.50;;;;;;5095174;28;20369;-76
2022/01/03 05:33:46;;;;;;;;;;;10.70;86.30;;;;;;5094992;28;20444;-76
2022/01/03 05:36:12;;;;;;;;;;;10.70;86.50;;;;;;5095208;28;19947;-76
2022/01/03 05:38:38;;;;;;;;;;;10.70;85.90;;;;;;5076823;28;19908;-76
2022/01/03 05:41:03;;;;;;;;;;;10.70;85.70;;;;;;5095046;28;20318;-76
2022/01/03 05:43:29;;;;;;;;;;;10.60;85.40;;;;;;5076526;28;19911;-76
2022/01/03 05:45:54;;;;;;;;;;;10.60;85.20;;;;;;5094671;28;20371;-76
2022/01/03 05:48:21;;;;;;;;;;;10.60;85.80;;;;;;5094498;28;19929;-76
2022/01/03 05:50:49;;;;;;;;;;;10.60;86.10;;;;;;5072579;28;19913;-75
2022/01/03 05:53:15;;;;;;;;;;;10.60;85.70;;;;;;5074534;28;19909;-75
2022/01/03 05:55:42;;;;;;;;;;;10.50;85.70;;;;;;5074446;28;19958;-76
2022/01/03 05:58:10;;;;;;;;;;;10.50;86.10;;;;;;5074073;28;20306;-76
2022/01/03 06:00:36;;;;;;;;;;;10.50;86.00;;;;;;5072678;28;20365;-76
2022/01/03 06:03:02;;;;;;;;;;;10.50;86.20;;;;;;5072774;28;19920;-77
2022/01/03 06:05:42;;;;;;;;;;;10.50;86.00;;;;;;5055922;28;19913;-76
2022/01/03 06:08:11;;;;;;;;;;;10.50;86.30;;;;;;5074244;28;19931;-78
2022/01/03 06:10:38;;;;;;;;;;;10.50;86.30;;;;;;5073131;28;19909;-76
2022/01/03 06:13:04;;;;;;;;;;;10.50;86.00;;;;;;5055998;28;19913;-76
2022/01/03 06:15:30;;;;;;;;;;;10.50;85.80;;;;;;5075683;28;19905;-76
2022/01/03 06:17:57;;;;;;;;;;;10.50;85.80;;;;;;5074723;28;19908;-77
2022/01/03 06:20:22;;;;;;;;;;;10.50;85.90;;;;;;5074865;28;19908;-77
2022/01/03 06:22:49;;;;;;;;;;;10.50;86.00;;;;;;5074088;28;19904;-77
2022/01/03 06:25:15;;;;;;;;;;;10.50;85.70;;;;;;5072348;28;19999;-76
2022/01/03 06:27:55;;;;;;;;;;;10.50;85.70;;;;;;5072911;28;19904;-75
2022/01/03 06:30:21;;;;;;;;;;;10.50;85.60;;;;;;5077213;28;19995;-77
2022/01/03 06:32:46;;;;;;;;;;;10.50;85.50;;;;;;5074127;28;19948;-77
2022/01/03 06:35:13;;;;;;;;;;;10.50;85.20;;;;;;5072059;28;20302;-76
2022/01/03 06:37:38;;;;;;;;;;;10.50;85.20;;;;;;5072686;28;19904;-79
2022/01/03 06:40:06;;;;;;;;;;;10.50;85.30;;;;;;5066729;28;19911;-77
2022/01/03 06:42:33;;;;;;;;;;;10.40;85.10;;;;;;5074487;28;20416;-77
2022/01/03 06:45:00;;;;;;;;;;;10.40;85.00;;;;;;5073210;28;19905;-76
2022/01/03 06:47:26;;;;;;;;;;;10.40;85.20;;;;;;5074137;28;19926;-77
2022/01/03 06:49:51;;;;;;;;;;;10.30;84.60;;;;;;5055542;28;20405;-74
2022/01/03 06:52:17;;;;;;;;;;;10.30;86.00;;;;;;5073459;28;19995;-82
2022/01/03 06:54:42;;;;;;;;;;;10.30;86.70;;;;;;5073765;28;19908;-77
2022/01/03 06:57:08;;;;;;;;;;;10.30;84.60;;;;;;5038590;28;19924;-75
2022/01/03 06:59:35;;;;;;;;;;;10.30;84.20;;;;;;5071706;28;19911;-76
2022/01/03 07:02:00;;;;;;;;;;;10.20;84.30;;;;;;5053994;28;19911;-74
2022/01/03 07:04:26;;;;;;;;;;;10.20;84.40;;;;;;5041302;28;19905;-74
2022/01/03 07:06:51;;;;;;;;;;;10.20;84.70;;;;;;5050029;28;20328;-77
2022/01/03 07:09:18;;;;;;;;;;;10.20;84.60;;;;;;5053933;28;20354;-75
2022/01/03 07:11:45;;;;;;;;;;;10.20;84.10;;;;;;5070426;28;19912;-76
2022/01/03 07:19:45;;;;;;;;;;;10.30;83.00;;;;;;5058000;28;19915;-74
2022/01/03 07:22:11;;;;;;;;;;;10.30;82.20;;;;;;5072762;28;19909;-74
2022/01/03 07:24:41;;;;;;;;;;;10.40;81.50;;;;;;5073024;28;20242;-76
2022/01/03 07:27:10;;;;;;;;;;;10.40;81.40;;;;;;5071763;28;20330;-76
2022/01/03 07:29:37;;;;;;;;;;;10.40;81.00;;;;;;5071907;28;19908;-77
2022/01/03 07:32:04;;;;;;;;;;;10.40;80.80;;;;;;5072839;28;19951;-75
2022/01/03 07:34:30;;;;;;;;;;;10.30;80.60;;;;;;5071535;28;19916;-76
2022/01/03 07:36:55;;;;;;;;;;;10.40;81.20;;;;;;5071681;28;19908;-74
2022/01/03 07:39:22;;;;;;;;;;;10.30;81.00;;;;;;5074179;28;19983;-76
2022/01/03 07:41:47;;;;;;;;;;;10.30;80.30;;;;;;5076096;28;19962;-78
2022/01/03 07:44:13;;;;;;;;;;;10.30;80.50;;;;;;5076564;28;19951;-76
2022/01/03 07:46:47;;;;;;;;;;;10.40;80.00;;;;;;5059010;28;19904;-75
2022/01/03 07:49:13;;;;;;;;;;;10.40;79.30;;;;;;5077280;28;19905;-79
2022/01/03 07:51:38;;;;;;;;;;;10.50;79.70;;;;;;5081667;28;20293;-79
2022/01/03 07:54:04;;;;;;;;;;;10.50;79.10;;;;;;5080090;28;20311;-75
2022/01/03 07:56:29;;;;;;;;;;;10.50;78.80;;;;;;5077866;28;19904;-78
2022/01/03 07:58:55;;;;;;;;;;;10.50;78.30;;;;;;5077319;28;19905;-78
2022/01/03 08:01:20;;;;;;;;;;;10.50;77.70;;;;;;5076382;28;19914;-78
2022/01/03 08:03:46;;;;;;;;;;;10.50;77.80;;;;;;5076132;28;19904;-77
2022/01/03 08:06:11;;;;;;;;;;;10.50;78.00;;;;;;5076182;28;19983;-77
2022/01/03 08:08:37;;;;;;;;;;;10.50;78.10;;;;;;5076308;28;19995;-82
2022/01/03 08:11:03;;;;;;;;;;;10.50;78.20;;;;;;5076324;28;20352;-77
2022/01/03 08:13:28;;;;;;;;;;;10.50;78.20;;;;;;5076613;28;19951;-78
2022/01/03 08:15:54;;;;;;;;;;;10.50;78.50;;;;;;5076932;28;19911;-78
2022/01/03 08:18:19;;;;;;;;;;;10.60;78.50;;;;;;5075984;28;19915;-77
2022/01/03 08:20:45;;;;;;;;;;;10.60;78.60;;;;;;5058537;28;19912;-81
2022/01/03 08:23:10;;;;;;;;;;;10.70;78.30;;;;;;5058762;28;20011;-78
2022/01/03 08:25:37;;;;;;;;;;;10.80;78.50;;;;;;5058188;28;20011;-77
2022/01/03 08:28:06;;;;;;;;;;;10.80;77.50;;;;;;5076241;28;19904;-81
2022/01/03 08:30:32;;;;;;;;;;;10.90;76.50;;;;;;5058115;28;19904;-79
2022/01/03 08:32:58;;;;;;;;;;;10.90;76.90;;;;;;5058274;28;19919;-82
2022/01/03 08:35:24;;;;;;;;;;;11.00;76.70;;;;;;5057972;28;20388;-75
2022/01/03 08:37:50;;;;;;;;;;;11.10;76.50;;;;;;5075434;28;19905;-77
2022/01/03 08:40:16;;;;;;;;;;;11.10;76.50;;;;;;5075907;28;19912;-75
2022/01/03 08:42:43;;;;;;;;;;;11.30;75.90;;;;;;5076040;28;19904;-78
2022/01/03 08:45:08;;;;;;;;;;;11.50;75.20;;;;;;5075298;28;19908;-78
2022/01/03 08:47:35;;;;;;;;;;;11.50;74.90;;;;;;5075504;28;20272;-75
2022/01/03 08:50:10;;;;;;;;;;;11.60;74.20;;;;;;5075302;28;20321;-74
2022/01/03 08:52:36;;;;;;;;;;;11.60;74.30;;;;;;5074622;28;20316;-72
2022/01/03 08:55:03;;;;;;;;;;;11.50;74.90;;;;;;5075007;28;20020;-73
2022/01/03 08:57:29;;;;;;;;;;;11.50;75.10;;;;;;5075522;28;20345;-75
2022/01/03 08:59:55;;;;;;;;;;;11.50;74.60;;;;;;5075003;28;19904;-74
2022/01/03 09:02:21;;;;;;;;;;;11.50;75.20;;;;;;5075468;28;19909;-73
2022/01/03 09:04:48;;;;;;;;;;;11.50;74.10;;;;;;5057516;28;20365;-75
2022/01/03 09:07:14;;;;;;;;;;;11.60;73.90;;;;;;5057304;28;19908;-77
2022/01/03 09:09:40;;;;;;;;;;;11.70;74.00;;;;;;5057348;28;19944;-77
2022/01/03 09:12:09;;;;;;;;;;;11.80;73.40;;;;;;5058032;28;20348;-77
2022/01/03 09:14:36;;;;;;;;;;;11.90;73.80;;;;;;5037236;28;19908;-76
2022/01/03 09:17:04;;;;;;;;;;;12.10;72.90;;;;;;5041522;28;19905;-76
2022/01/03 09:19:32;;;;;;;;;;;12.30;72.10;;;;;;5075088;28;19912;-76
2022/01/03 09:22:22;;;;;;;;;;;12.50;70.80;;;;;;5056600;28;20265;-75
2022/01/03 09:30:13;;;;;;;;;;;13.20;68.60;;;;;;5075333;28;20250;-75
2022/01/03 09:32:40;;;;;;;;;;;13.30;68.10;;;;;;5075369;28;19908;-75
2022/01/03 09:35:11;;;;;;;;;;;13.30;66.90;;;;;;5057012;28;19933;-76
2022/01/03 09:37:36;;;;;;;;;;;13.30;66.90;;;;;;5048217;28;19908;-78
2022/01/03 09:40:03;;;;;;;;;;;13.30;67.10;;;;;;5074575;28;20070;-77
2022/01/03 09:42:34;;;;;;;;;;;13.30;67.30;;;;;;5040111;28;19908;-76
2022/01/03 09:45:04;;;;;;;;;;;13.30;67.50;;;;;;5039889;28;19915;-78
2022/01/03 09:47:32;;;;;;;;;;;13.30;68.20;;;;;;5040224;28;19948;-77
2022/01/03 09:49:58;;;;;;;;;;;13.30;66.90;;;;;;5055233;28;19908;-77
2022/01/03 09:52:24;;;;;;;;;;;13.40;67.30;;;;;;5055784;28;19921;-77
2022/01/03 09:54:50;;;;;;;;;;;13.40;66.70;;;;;;5054287;28;19905;-77
2022/01/03 09:57:17;;;;;;;;;;;13.30;66.70;;;;;;5054955;28;20290;-75
2022/01/03 09:59:43;;;;;;;;;;;13.30;67.00;;;;;;5036727;28;19943;-75
2022/01/03 10:02:09;;;;;;;;;;;13.30;66.70;;;;;;5055844;28;19909;-74
2022/01/03 10:04:35;;;;;;;;;;;13.30;66.90;;;;;;5055653;28;19912;-74
2022/01/03 10:07:01;;;;;;;;;;;13.20;67.00;;;;;;5047674;28;20003;-75
2022/01/03 10:09:26;;;;;;;;;;;13.20;67.50;;;;;;5054408;28;19905;-75
2022/01/03 10:11:52;;;;;;;;;;;13.30;66.70;;;;;;5035943;28;19927;-77
2022/01/03 10:14:18;;;;;;;;;;;13.30;66.90;;;;;;5036438;28;19962;-75
2022/01/03 10:16:44;;;;;;;;;;;13.40;67.20;;;;;;5038514;28;19974;-78
2022/01/03 10:19:10;;;;;;;;;;;13.40;67.10;;;;;;5057154;28;19904;-76
2022/01/03 10:21:36;;;;;;;;;;;13.40;66.10;;;;;;5057339;28;19912;-78
2022/01/03 10:24:01;;;;;;;;;;;13.40;66.10;;;;;;5054451;28;19905;-74
2022/01/03 10:26:27;;;;;;;;;;;13.30;65.60;;;;;;5053689;28;20304;-76
2022/01/03 10:29:11;;;;;;;;;;;13.20;65.30;;;;;;5053870;28;19955;-75
2022/01/03 10:31:40;;;;;;;;;;;13.10;65.80;;;;;;5035710;28;19909;-79
2022/01/03 10:34:06;;;;;;;;;;;13.00;67.00;;;;;;5053777;28;19908;-78
2022/01/03 10:36:34;;;;;;;;;;;13.00;67.00;;;;;;5036083;28;19904;-80
2022/01/03 10:39:10;;;;;;;;;;;13.00;67.50;;;;;;5055408;28;19954;-77
2022/01/03 10:41:36;;;;;;;;;;;13.00;67.50;;;;;;5035862;28;19966;-77
2022/01/03 10:44:01;;;;;;;;;;;13.00;67.30;;;;;;5035330;28;20299;-77
2022/01/03 10:46:28;;;;;;;;;;;12.90;67.30;;;;;;5053471;28;19904;-80
2022/01/03 10:49:13;;;;;;;;;;;12.90;67.60;;;;;;5035580;28;20345;-79
2022/01/03 10:51:39;;;;;;;;;;;12.90;67.30;;;;;;5064203;28;19958;-81
2022/01/03 10:54:10;;;;;;;;;;;12.90;67.60;;;;;;5054287;28;19912;-78
2022/01/03 10:56:38;;;;;;;;;;;12.90;66.70;;;;;;5055331;28;20057;-76
2022/01/03 10:59:26;;;;;;;;;;;12.80;66.80;;;;;;5072736;28;20397;-76
2022/01/03 11:01:58;;;;;;;;;;;12.80;66.80;;;;;;5073593;28;19905;-75
2022/01/03 11:04:32;;;;;;;;;;;12.70;66.50;;;;;;5073366;28;19904;-77
2022/01/03 11:13:09;;;;;;;;;;;12.50;67.90;;;;;;5072255;28;20150;-73
2022/01/03 11:15:36;;;;;;;;;;;12.40;68.40;;;;;;5070383;28;19904;-75
2022/01/03 11:18:11;;;;;;;;;;;12.30;69.00;;;;;;5053675;28;19905;-74
2022/01/03 11:20:36;;;;;;;;;;;12.30;69.30;;;;;;5048916;28;20366;-77
2022/01/03 11:23:08;;;;;;;;;;;12.20;69.80;;;;;;5051664;28;19991;-76
2022/01/03 11:25:34;;;;;;;;;;;12.10;69.90;;;;;;5051953;28;19911;-76
2022/01/03 11:28:00;;;;;;;;;;;12.10;70.60;;;;;;5066153;28;19908;-77
2022/01/03 11:30:27;;;;;;;;;;;12.00;71.20;;;;;;5072131;28;20250;-75
2022/01/03 11:32:56;;;;;;;;;;;12.00;71.70;;;;;;5070277;28;19908;-76
2022/01/03 11:35:25;;;;;;;;;;;12.00;71.70;;;;;;5070376;28;19990;-72
2022/01/03 11:37:53;;;;;;;;;;;12.00;72.10;;;;;;5072401;28;20254;-78
2022/01/03 11:40:19;;;;;;;;;;;12.00;72.50;;;;;;5072026;28;19915;-78
2022/01/03 11:42:48;;;;;;;;;;;12.10;70.30;;;;;;5069462;28;19904;-75
2022/01/03 11:45:14;;;;;;;;;;;12.10;70.50;;;;;;5072933;28;20333;-75
2022/01/03 11:47:41;;;;;;;;;;;12.10;70.70;;;;;;5073028;28;19904;-77
2022/01/03 11:50:10;;;;;;;;;;;12.10;70.30;;;;;;5071510;28;19990;-78
2022/01/03 11:52:39;;;;;;;;;;;12.10;70.50;;;;;;5055165;28;19916;-78
2022/01/03 11:55:06;;;;;;;;;;;12.10;70.40;;;;;;5033855;28;19905;-79
2022/01/03 11:58:13;;;;;;;;;;;12.20;71.00;;;;;;5015662;28;19920;-77
2022/01/03 12:03:40;;;;;;;;;;;12.20;69.10;;;;;;5032734;28;20064;-75
2022/01/03 12:06:08;;;;;;;;;;;12.20;69.40;;;;;;5032993;28;19959;-76
2022/01/03 12:08:36;;;;;;;;;;;12.20;68.80;;;;;;4999123;28;19909;-73
2022/01/03 12:11:17;;;;;;;;;;;12.20;69.10;;;;;;5023182;28;19996;-76
2022/01/03 12:13:55;;;;;;;;;;;12.20;69.60;;;;;;5032403;28;19917;-73
2022/01/03 12:16:50;;;;;;;;;;;12.20;69.50;;;;;;5052704;28;20003;-76
2022/01/03 12:19:35;;;;;;;;;;;12.20;69.60;;;;;;5034901;28;20378;-73
2022/01/03 12:22:09;;;;;;;;;;;12.20;69.30;;;;;;5034511;28;20413;-82
2022/01/03 12:24:36;;;;;;;;;;;12.20;69.60;;;;;;5035362;28;20309;-80
2022/01/03 12:27:15;;;;;;;;;;;12.30;69.60;;;;;;5038059;28;19905;-76
2022/01/03 12:29:53;;;;;;;;;;;12.30;69.10;;;;;;5038289;28;19905;-75
2022/01/03 12:32:33;;;;;;;;;;;12.30;69.00;;;;;;5055999;28;19913;-77
2022/01/03 12:35:21;;;;;;;;;;;12.30;69.70;;;;;;5038629;28;19909;-79
2022/01/03 12:37:50;;;;;;;;;;;12.20;69.60;;;;;;5038302;28;19975;-78
2022/01/03 12:40:18;;;;;;;;;;;12.20;69.80;;;;;;5055931;28;19911;-78
2022/01/03 12:42:54;;;;;;;;;;;12.20;70.30;;;;;;5037894;28;19905;-77
2022/01/03 12:45:35;;;;;;;;;;;12.20;69.80;;;;;;5056261;28;20277;-79
2022/01/03 12:48:18;;;;;;;;;;;12.20;69.40;;;;;;5038191;28;19974;-77
2022/01/03 12:50:59;;;;;;;;;;;12.20;69.50;;;;;;5038082;28;20246;-79
2022/01/03 12:53:28;;;;;;;;;;;12.20;68.90;;;;;;5058088;28;19916;-75
2022/01/03 12:56:00;;;;;;;;;;;12.20;69.10;;;;;;5075820;28;19955;-76
2022/01/03 12:58:26;;;;;;;;;;;12.20;68.90;;;;;;5057572;28;19905;-76
2022/01/03 13:01:04;;;;;;;;;;;12.20;68.80;;;;;;5057277;28;20007;-79
2022/01/03 13:03:39;;;;;;;;;;;12.20;69.30;;;;;;5057260;28;19915;-76
2022/01/03 13:06:13;;;;;;;;;;;12.10;68.90;;;;;;5057748;28;19954;-79
2022/01/03 13:08:48;;;;;;;;;;;12.10;69.40;;;;;;5056160;28;19913;-77
2022/01/03 13:11:34;;;;;;;;;;;12.10;69.60;;;;;;5059446;28;19936;-79
2022/01/03 13:14:12;;;;;;;;;;;12.10;69.90;;;;;;5057396;28;19908;-77
2022/01/03 13:16:38;;;;;;;;;;;12.10;70.10;;;;;;5037425;28;20316;-76
2022/01/03 13:19:12;;;;;;;;;;;12.10;69.40;;;;;;5037304;28;19911;-78
2022/01/03 13:21:42;;;;;;;;;;;12.10;68.70;;;;;;5055382;28;19995;-78
2022/01/03 13:24:14;;;;;;;;;;;12.20;68.70;;;;;;5054054;28;20357;-82
2022/01/03 13:26:59;;;;;;;;;;;12.20;68.50;;;;;;5063306;28;19908;-80
2022/01/03 13:29:27;;;;;;;;;;;12.20;68.50;;;;;;5074633;28;19904;-74
2022/01/03 13:31:54;;;;;;;;;;;12.20;68.20;;;;;;5073316;28;19908;-78
2022/01/03 13:34:22;;;;;;;;;;;12.10;68.40;;;;;;5073479;28;19904;-81
2022/01/03 13:36:49;;;;;;;;;;;12.00;68.40;;;;;;5074375;28;19912;-79
2022/01/03 13:39:18;;;;;;;;;;;11.90;68.80;;;;;;5074973;28;19916;-72
2022/01/03 13:41:53;;;;;;;;;;;11.80;69.20;;;;;;5056790;28;20049;-74
2022/01/03 13:50:04;;;;;;;;;;;11.60;70.60;;;;;;5073729;28;19989;-75
2022/01/03 13:52:41;;;;;;;;;;;11.50;70.50;;;;;;5089590;28;19927;-73
2022/01/03 13:55:16;;;;;;;;;;;11.40;70.50;;;;;;5094921;28;19965;-76
2022/01/03 13:57:46;;;;;;;;;;;11.30;70.80;;;;;;5076185;28;19966;-76
2022/01/03 14:00:16;;;;;;;;;;;11.20;71.40;;;;;;5060312;28;19915;-74
2022/01/03 14:02:58;;;;;;;;;;;11.10;71.60;;;;;;5094595;28;19908;-74
2022/01/03 14:05:24;;;;;;;;;;;11.00;72.00;;;;;;5094653;28;20372;-75
2022/01/03 14:08:04;;;;;;;;;;;11.00;72.00;;;;;;5079990;28;19908;-75
2022/01/03 14:10:40;;;;;;;;;;;10.90;72.10;;;;;;5056669;28;20426;-78
2022/01/03 14:13:11;;;;;;;;;;;10.80;72.40;;;;;;5074195;28;19931;-78
2022/01/03 14:15:37;;;;;;;;;;;10.80;71.90;;;;;;5056622;28;19908;-80
2022/01/03 14:18:05;;;;;;;;;;;10.80;72.00;;;;;;5074514;28;19908;-76
2022/01/03 14:20:34;;;;;;;;;;;10.70;72.20;;;;;;5074290;28;19908;-74
2022/01/03 14:23:00;;;;;;;;;;;10.70;72.00;;;;;;5056014;28;19904;-78
2022/01/03 14:25:27;;;;;;;;;;;10.60;72.50;;;;;;5057197;28;20334;-78
2022/01/03 14:28:02;;;;;;;;;;;10.60;72.50;;;;;;5056174;28;19927;-76
2022/01/03 14:30:34;;;;;;;;;;;10.60;72.80;;;;;;5056176;28;19912;-77
2022/01/03 14:33:03;;;;;;;;;;;10.60;72.30;;;;;;5073508;28;19913;-76
2022/01/03 14:35:33;;;;;;;;;;;10.60;72.20;;;;;;5073494;28;20433;-76
2022/01/03 14:38:02;;;;;;;;;;;10.60;72.40;;;;;;5073515;28;19904;-78